Time;durP1;ratioP1;P1;durP2;ratioP2;P2;SDS_P1;SDS_P2;PMS_P1;PMS_P2;Temp;Humidity;BMP_temperature;BMP_pressure;BME280_temperature;BME280_humidity;BME280_pressure;Samples;Min_cycle;Max_cycle;Signal;HPM_P1;HPM_P2
2021/09/12 00:00:23;;;;;;;17.10;13.50;;;;;;;11.71;78.28;97436.31;116230;1182;69095;-67
2021/09/12 00:03:06;;;;;;;16.00;11.80;;;;;;;11.65;79.96;97438.36;116174;1181;59525;-65
2021/09/12 00:05:36;;;;;;;22.10;16.40;;;;;;;11.60;80.20;97435.80;116154;1182;59480;-66
2021/09/12 00:08:06;;;;;;;15.20;10.60;;;;;;;11.55;79.36;97433.20;116236;1177;71179;-67
2021/09/12 00:10:36;;;;;;;14.80;9.40;;;;;;;11.52;77.40;97432.05;116119;1183;68979;-66
2021/09/12 00:13:06;;;;;;;15.20;11.90;;;;;;;11.49;76.45;97433.11;116204;1178;68346;-65
2021/09/12 00:15:36;;;;;;;;;;;;;;;11.46;76.49;97427.40;116203;1181;59534;-67
2021/09/12 00:18:06;;;;;;;14.20;10.80;;;;;;;11.43;76.54;97428.00;116258;1181;59644;-67
2021/09/12 00:20:36;;;;;;;12.30;7.90;;;;;;;11.42;75.93;97425.48;116244;1181;70530;-69
2021/09/12 00:23:06;;;;;;;11.10;8.70;;;;;;;11.39;75.63;97429.16;116182;1182;68245;-65
2021/09/12 00:25:36;;;;;;;;;;;;;;;11.37;78.47;97426.86;116119;1184;68418;-65
2021/09/12 00:28:07;;;;;;;28.90;18.50;;;;;;;11.32;79.13;97429.71;116169;1181;59600;-69
2021/09/12 00:30:37;;;;;;;26.50;18.00;;;;;;;11.21;78.45;97429.00;116169;1180;59525;-66
2021/09/12 00:33:07;;;;;;;26.80;18.20;;;;;;;11.07;79.12;97430.35;116201;1181;71249;-65
2021/09/12 00:35:37;;;;;;;24.40;17.50;;;;;;;10.99;78.31;97431.28;116215;1182;69134;-67
2021/09/12 00:38:08;;;;;;;25.60;16.70;;;;;;;10.93;78.57;97432.46;116103;1182;69046;-68
2021/09/12 00:40:39;;;;;;;19.60;13.80;;;;;;;10.87;78.34;97440.02;116265;1180;59493;-66
2021/09/12 00:43:08;;;;;;;17.00;13.90;;;;;;;10.85;77.01;97441.61;116374;1181;59549;-66
2021/09/12 00:45:38;;;;;;;13.10;9.80;;;;;;;10.82;77.20;97439.04;116329;1182;71277;-66
2021/09/12 00:48:11;;;;;;;14.50;10.00;;;;;;;10.80;76.05;97437.41;116193;1180;69170;-65
2021/09/12 00:50:41;;;;;;;15.30;11.50;;;;;;;10.81;76.24;97442.95;116357;1182;68973;-65
2021/09/12 00:53:11;;;;;;;19.60;14.00;;;;;;;10.80;78.77;97446.84;116284;1179;59548;-66
2021/09/12 00:55:42;;;;;;;14.70;9.70;;;;;;;10.78;77.75;97449.64;116262;1181;59540;-68
2021/09/12 00:58:17;;;;;;;16.80;11.10;;;;;;;10.75;76.18;97449.98;116286;1181;70375;-66
2021/09/12 01:00:47;;;;;;;18.30;11.80;;;;;;;10.72;76.18;97450.02;116293;1181;69130;-68
2021/09/12 01:03:17;;;;;;;20.20;13.40;;;;;;;10.69;77.48;97450.20;116164;1178;68273;-68
2021/09/12 01:05:49;;;;;;;12.60;9.50;;;;;;;10.66;77.62;97447.11;116263;1181;59541;-65
2021/09/12 01:08:19;;;;;;;15.50;11.40;;;;;;;10.65;78.32;97443.92;116232;1182;59494;-66
2021/09/12 01:10:50;;;;;;;20.10;14.90;;;;;;;10.62;77.83;97446.04;116092;1182;70540;-66
2021/09/12 01:13:20;;;;;;;14.50;10.00;;;;;;;10.59;78.93;97441.73;116181;1181;69195;-66
2021/09/12 01:15:50;;;;;;;16.60;12.80;;;;;;;10.57;80.57;97437.86;116123;1181;69228;-68
2021/09/12 01:18:20;;;;;;;;;;;;;;;10.55;80.96;97436.98;116194;1181;59531;-66
2021/09/12 01:20:49;;;;;;;16.20;11.20;;;;;;;10.53;83.18;97433.79;116122;1182;59541;-66
2021/09/12 01:23:19;;;;;;;14.50;11.20;;;;;;;10.51;82.82;97434.48;116165;1181;71777;-66
2021/09/12 01:25:55;;;;;;;15.30;11.40;;;;;;;10.49;80.89;97433.35;116194;1181;68086;-65
2021/09/12 01:28:25;;;;;;;11.40;8.70;;;;;;;10.49;79.20;97433.73;116141;1182;68568;-65
2021/09/12 01:30:56;;;;;;;19.20;13.90;;;;;;;10.45;79.53;97433.14;116271;1180;59529;-65
2021/09/12 01:33:27;;;;;;;19.50;14.00;;;;;;;10.39;81.13;97429.20;116001;1181;59486;-65
2021/09/12 01:35:56;;;;;;;14.40;11.40;;;;;;;10.34;82.16;97427.86;116151;1182;71344;-69
2021/09/12 01:38:27;;;;;;;15.30;11.20;;;;;;;10.32;80.62;97428.74;116208;1181;68383;-66
2021/09/12 01:40:57;;;;;;;15.40;12.00;;;;;;;10.29;79.48;97431.18;116159;1177;68487;-65
2021/09/12 01:43:28;;;;;;;13.00;9.40;;;;;;;10.25;79.60;97426.91;116196;1181;60016;-65
2021/09/12 01:45:58;;;;;;;19.60;14.20;;;;;;;10.22;80.86;97432.69;116185;1181;59500;-65
2021/09/12 01:48:29;;;;;;;16.00;12.00;;;;;;;10.18;81.57;97434.02;116197;1181;71216;-67
2021/09/12 01:50:58;;;;;;;12.40;9.00;;;;;;;10.14;79.73;97427.68;116236;1181;69160;-66
2021/09/12 01:53:28;;;;;;;14.90;10.30;;;;;;;10.12;79.16;97426.21;116247;1181;69055;-67
2021/09/12 01:55:58;;;;;;;20.40;15.00;;;;;;;10.09;78.99;97425.91;116317;1180;59540;-65
2021/09/12 01:58:27;;;;;;;17.60;13.00;;;;;;;10.04;79.44;97420.51;116240;1181;59525;-65
2021/09/12 02:00:58;;;;;;;17.20;11.50;;;;;;;10.02;78.75;97422.95;116175;1182;70566;-65
2021/09/12 02:03:28;;;;;;;12.50;10.30;;;;;;;9.99;78.27;97423.13;116030;1183;68421;-66
2021/09/12 02:05:58;;;;;;;10.20;7.40;;;;;;;9.98;77.64;97422.55;116295;1180;68623;-64
2021/09/12 02:08:28;;;;;;;13.70;10.30;;;;;;;9.96;78.00;97419.40;116214;1178;59508;-67
2021/09/12 02:10:58;;;;;;;14.80;10.50;;;;;;;9.93;78.70;97423.58;116249;1179;59549;-66
2021/09/12 02:13:28;;;;;;;11.20;8.70;;;;;;;9.90;77.41;97419.41;116215;1182;70559;-66
2021/09/12 02:15:59;;;;;;;18.00;12.40;;;;;;;9.89;78.36;97422.84;116213;1182;68254;-66
2021/09/12 02:18:29;;;;;;;14.20;10.50;;;;;;;9.85;80.69;97418.60;116147;1181;69399;-67
2021/09/12 02:21:00;;;;;;;13.70;10.60;;;;;;;9.82;80.74;97417.05;116280;1181;59558;-68
2021/09/12 02:23:31;;;;;;;12.80;9.50;;;;;;;9.80;79.37;97415.30;116235;1182;59489;-66
2021/09/12 02:26:01;;;;;;;15.30;10.80;;;;;;;9.78;78.93;97413.87;116186;1182;70547;-65
2021/09/12 02:28:31;;;;;;;14.90;10.40;;;;;;;9.75;80.27;97411.08;116217;1182;69097;-66
2021/09/12 02:31:01;;;;;;;15.60;10.70;;;;;;;9.71;79.91;97412.21;116209;1182;68469;-67
2021/09/12 02:33:32;;;;;;;15.10;10.00;;;;;;;9.69;79.59;97407.34;116194;1181;59521;-66
2021/09/12 02:36:03;;;;;;;12.30;9.40;;;;;;;9.66;78.81;97410.81;116213;1181;59517;-65
2021/09/12 02:38:34;;;;;;;11.40;7.00;;;;;;;9.64;78.53;97406.76;116194;1182;70550;-66
2021/09/12 02:41:04;;;;;;;10.80;8.30;;;;;;;9.64;77.51;97410.13;116250;1181;68444;-66
2021/09/12 02:43:33;;;;;;;11.40;8.10;;;;;;;9.64;78.01;97413.71;116201;1177;69219;-66
2021/09/12 02:46:04;;;;;;;12.50;11.10;;;;;;;9.61;79.00;97414.34;116421;1178;59470;-68
2021/09/12 02:48:34;;;;;;;23.20;15.10;;;;;;;9.55;81.50;97416.62;116223;1181;59541;-66
2021/09/12 02:51:04;;;;;;;21.90;16.20;;;;;;;9.43;81.33;97414.50;116215;1182;70458;-67
2021/09/12 02:53:34;;;;;;;17.60;10.30;;;;;;;9.35;80.57;97415.94;116249;1181;68980;-67
2021/09/12 02:56:05;;;;;;;16.50;11.90;;;;;;;9.31;79.31;97413.73;116199;1181;68413;-66
2021/09/12 02:58:35;;;;;;;10.90;7.90;;;;;;;9.28;79.03;97413.75;116174;1182;60317;-67
2021/09/12 03:01:04;;;;;;;;;;;;;;;9.27;79.17;97412.30;116334;1180;60344;-65
2021/09/12 03:03:35;;;;;;;12.30;9.80;;;;;;;9.24;79.46;97409.18;116189;1182;71985;-65
2021/09/12 03:06:06;;;;;;;17.00;10.20;;;;;;;9.23;79.70;97412.23;116195;1181;68598;-66
2021/09/12 03:08:36;;;;;;;;;;;;;;;9.22;78.10;97414.40;116329;1182;68425;-66
2021/09/12 03:11:06;;;;;;;14.80;9.60;;;;;;;9.21;78.13;97414.27;116144;1181;60352;-66
2021/09/12 03:13:36;;;;;;;15.00;10.80;;;;;;;9.16;78.39;97414.58;116237;1181;60354;-68
2021/09/12 03:16:06;;;;;;;42.30;27.90;;;;;;;9.12;78.48;97416.46;116114;1182;72573;-67
2021/09/12 03:18:36;;;;;;;58.60;38.90;;;;;;;9.07;79.09;97415.19;116137;1181;68762;-66
2021/09/12 03:21:06;;;;;;;;;;;;;;;9.02;78.93;97416.54;116101;1182;69214;-66
2021/09/12 03:23:36;;;;;;;59.10;38.90;;;;;;;9.00;78.71;97419.14;116192;1180;60346;-66
2021/09/12 03:26:06;;;;;;;38.50;26.30;;;;;;;8.98;78.79;97421.89;116282;1181;60709;-64
2021/09/12 03:28:37;;;;;;;43.40;25.50;;;;;;;8.97;78.81;97425.05;116221;1181;71582;-65
2021/09/12 03:31:06;;;;;;;50.70;31.70;;;;;;;8.97;78.01;97425.23;116332;1181;69196;-66
2021/09/12 03:33:36;;;;;;;33.80;24.20;;;;;;;8.96;78.16;97424.76;116319;1181;68048;-65
2021/09/12 03:36:06;;;;;;;19.80;13.90;;;;;;;8.96;78.71;97420.97;116281;1178;60324;-65
2021/09/12 03:38:36;;;;;;;;;;;;;;;8.96;77.84;97420.27;116223;1181;60331;-65
2021/09/12 03:41:06;;;;;;;20.50;14.50;;;;;;;8.95;78.02;97418.59;116232;1182;72111;-67
2021/09/12 03:43:36;;;;;;;19.30;14.00;;;;;;;8.94;79.46;97417.80;116263;1177;69202;-65
2021/09/12 03:46:06;;;;;;;13.80;9.60;;;;;;;8.92;79.37;97417.39;116222;1182;68601;-65
2021/09/12 03:48:37;;;;;;;14.80;10.10;;;;;;;8.92;79.60;97418.98;116223;1181;60362;-66
2021/09/12 03:51:07;;;;;;;17.10;12.60;;;;;;;8.92;81.17;97419.12;116241;1177;60791;-69
2021/09/12 03:53:37;;;;;;;15.10;11.70;;;;;;;8.92;80.58;97420.87;116297;1182;72154;-66
2021/09/12 03:56:08;;;;;;;16.80;11.70;;;;;;;8.93;80.34;97426.52;116245;1182;68467;-67
2021/09/12 03:58:37;;;;;;;16.50;11.80;;;;;;;8.96;79.57;97425.52;116216;1182;68419;-66
2021/09/12 04:01:07;;;;;;;11.60;7.10;;;;;;;8.97;79.10;97424.38;116269;1181;60595;-65
2021/09/12 04:03:37;;;;;;;16.10;11.50;;;;;;;8.98;78.44;97426.24;116177;1182;60296;-65
2021/09/12 04:06:07;;;;;;;11.90;9.60;;;;;;;8.99;78.06;97430.18;116218;1178;71633;-65
2021/09/12 04:08:37;;;;;;;15.40;11.20;;;;;;;9.01;78.39;97430.16;116277;1181;68962;-69
2021/09/12 04:11:07;;;;;;;13.90;10.80;;;;;;;8.98;79.48;97432.13;116393;1181;68266;-65
2021/09/12 04:13:36;;;;;;;16.80;11.60;;;;;;;8.92;80.58;97433.57;116234;1181;60329;-65
2021/09/12 04:16:06;;;;;;;18.50;13.40;;;;;;;8.79;83.05;97435.67;116225;1180;60358;-65
2021/09/12 04:18:37;;;;;;;18.90;15.40;;;;;;;8.68;84.91;97434.26;116213;1182;71505;-65
2021/09/12 04:21:07;;;;;;;;;;;;;;;8.69;85.07;97436.27;116221;1182;69043;-65
2021/09/12 04:23:36;;;;;;;15.90;11.70;;;;;;;8.74;85.07;97437.23;116155;1182;68078;-66
2021/09/12 04:26:05;;;;;;;19.60;12.80;;;;;;;8.81;84.50;97436.73;116214;1181;60332;-66
2021/09/12 04:28:35;;;;;;;12.70;9.90;;;;;;;8.90;83.52;97433.33;116222;1178;60352;-66
2021/09/12 04:31:05;;;;;;;11.90;8.60;;;;;;;9.01;82.00;97438.86;116160;1178;72227;-66
2021/09/12 04:33:34;;;;;;;11.10;8.40;;;;;;;9.12;80.98;97440.20;116217;1181;68214;-66
2021/09/12 04:36:04;;;;;;;18.90;12.90;;;;;;;9.25;80.47;97441.82;116216;1181;69180;-67
2021/09/12 04:38:34;;;;;;;13.60;9.00;;;;;;;9.34;81.26;97445.17;116249;1181;60306;-66
2021/09/12 04:41:04;;;;;;;10.60;8.20;;;;;;;9.44;80.25;97448.86;116177;1181;60363;-67
2021/09/12 04:43:34;;;;;;;16.40;13.20;;;;;;;9.57;80.87;97446.98;116222;1178;71391;-65
2021/09/12 04:46:03;;;;;;;14.80;11.40;;;;;;;9.68;80.72;97446.56;116193;1181;68471;-64
2021/09/12 04:48:33;;;;;;;16.90;10.50;;;;;;;9.86;80.15;97445.80;116215;1182;68430;-66
2021/09/12 04:51:23;;;;;;;13.60;10.00;;;;;;;10.14;79.79;97448.58;116196;1181;60330;-66
2021/09/12 04:53:55;;;;;;;;;;;;;;;10.42;79.75;97451.48;116247;1181;60358;-67
2021/09/12 04:56:24;;;;;;;10.80;8.10;;;;;;;10.72;79.23;97448.98;116337;1181;72040;-67
2021/09/12 04:58:54;;;;;;;18.90;12.40;;;;;;;11.07;78.45;97453.91;116061;1183;68592;-65
2021/09/12 05:01:24;;;;;;;17.10;11.90;;;;;;;11.41;77.62;97451.38;116152;1181;69067;-65
2021/09/12 05:03:55;;;;;;;15.70;12.50;;;;;;;11.74;76.21;97457.78;116290;1178;60335;-67
2021/09/12 05:06:24;;;;;;;11.70;8.30;;;;;;;12.00;75.34;97458.77;116159;1181;60355;-69
2021/09/12 05:08:54;;;;;;;14.70;11.00;;;;;;;12.29;74.94;97456.48;116303;1178;72229;-66
2021/09/12 05:11:23;;;;;;;10.80;8.70;;;;;;;12.58;74.19;97458.15;116175;1182;68363;-65
2021/09/12 05:13:52;;;;;;;20.90;13.60;;;;;;;12.93;74.17;97458.14;116175;1182;68249;-67
2021/09/12 05:16:22;;;;;;;35.00;21.80;;;;;;;13.35;72.05;97457.86;116329;1178;60334;-67
2021/09/12 05:18:51;;;;;;;33.90;20.00;;;;;;;13.76;72.69;97457.94;116308;1181;60365;-65
2021/09/12 05:21:20;;;;;;;43.50;27.70;;;;;;;14.24;71.28;97462.73;116117;1183;72083;-68
2021/09/12 05:23:49;;;;;;;34.40;21.80;;;;;;;14.49;69.58;97459.34;116236;1181;69275;-66
2021/09/12 05:26:20;;;;;;;28.40;18.70;;;;;;;14.69;69.48;97457.56;116206;1182;69314;-66
2021/09/12 05:28:49;;;;;;;31.30;19.70;;;;;;;15.14;69.36;97456.22;116161;1179;60291;-69
2021/09/12 05:31:18;;;;;;;28.30;18.00;;;;;;;15.54;65.87;97457.27;116295;1182;60374;-67
2021/09/12 05:33:48;;;;;;;29.20;20.30;;;;;;;15.87;64.20;97454.91;116342;1182;72174;-66
2021/09/12 05:36:17;;;;;;;29.60;20.10;;;;;;;16.01;61.73;97457.67;116281;1182;68259;-66
2021/09/12 05:38:46;;;;;;;30.90;21.80;;;;;;;16.16;60.73;97459.42;116239;1181;68920;-66
2021/09/12 05:41:16;;;;;;;25.90;18.30;;;;;;;16.46;62.27;97458.46;116321;1179;60314;-68
2021/09/12 05:43:45;;;;;;;22.70;16.30;;;;;;;16.86;62.01;97461.98;116182;1182;60299;-66
2021/09/12 05:46:15;;;;;;;28.10;17.30;;;;;;;17.28;61.51;97457.02;116181;1182;72190;-66
2021/09/12 05:48:44;;;;;;;20.90;13.20;;;;;;;17.71;60.44;97465.58;116158;1181;69189;-66
2021/09/12 05:51:13;;;;;;;18.90;12.50;;;;;;;18.23;60.67;97465.66;116182;1182;67584;-66
2021/09/12 05:53:43;;;;;;;16.40;11.60;;;;;;;18.76;59.00;97467.11;116140;1177;60367;-66
2021/09/12 05:56:12;;;;;;;22.90;16.70;;;;;;;19.12;55.28;97465.40;116194;1181;60346;-66
2021/09/12 05:58:42;;;;;;;20.80;15.20;;;;;;;19.28;55.41;97466.98;116160;1182;72162;-67
2021/09/12 06:01:13;;;;;;;17.40;12.40;;;;;;;19.38;54.20;97469.67;116233;1182;69074;-65
2021/09/12 06:03:43;;;;;;;15.50;10.90;;;;;;;19.59;54.46;97469.41;116232;1181;69314;-65
2021/09/12 06:06:12;;;;;;;23.40;17.30;;;;;;;19.85;53.33;97467.23;116211;1178;60329;-66
2021/09/12 06:08:42;;;;;;;23.30;15.90;;;;;;;19.80;51.35;97467.62;116237;1182;60327;-66
2021/09/12 06:11:11;;;;;;;21.30;16.70;;;;;;;19.71;52.04;97465.77;116259;1179;71206;-65
2021/09/12 06:13:40;;;;;;;17.20;11.40;;;;;;;19.58;53.71;97466.96;116238;1182;69222;-66
2021/09/12 06:16:10;;;;;;;16.50;12.90;;;;;;;19.75;54.46;97466.36;116209;1181;68357;-65
2021/09/12 06:18:39;;;;;;;19.80;13.10;;;;;;;19.75;52.92;97469.15;116308;1181;60328;-68
2021/09/12 06:21:09;;;;;;;18.30;13.70;;;;;;;19.73;53.44;97471.87;116107;1181;60346;-66
2021/09/12 06:23:38;;;;;;;20.50;15.50;;;;;;;19.63;52.68;97469.58;116194;1182;71606;-67
2021/09/12 06:26:08;;;;;;;16.90;11.20;;;;;;;19.41;53.42;97472.69;116235;1182;69132;-66
2021/09/12 06:28:37;;;;;;;;;;;;;;;19.51;53.64;97470.36;116246;1181;68901;-67
2021/09/12 06:31:06;;;;;;;12.40;9.50;;;;;;;19.45;53.54;97474.67;116177;1181;60330;-68
2021/09/12 06:33:36;;;;;;;;;;;;;;;20.10;52.33;97481.05;116186;1182;60293;-65
2021/09/12 06:36:06;;;;;;;10.00;7.70;;;;;;;20.54;51.69;97483.21;116222;1182;71983;-66
2021/09/12 06:38:36;;;;;;;10.60;8.60;;;;;;;20.98;49.99;97483.53;116250;1181;69206;-67
2021/09/12 06:41:05;;;;;;;12.30;10.60;;;;;;;20.65;50.47;97486.96;116223;1182;68557;-67
2021/09/12 06:43:34;;;;;;;8.70;6.80;;;;;;;20.65;50.64;97485.55;116501;1181;60343;-67
2021/09/12 06:46:03;;;;;;;10.90;8.70;;;;;;;21.55;49.49;97490.86;116210;1181;60392;-66
2021/09/12 06:48:33;;;;;;;9.70;7.80;;;;;;;22.17;48.23;97495.62;116218;1180;72356;-66
2021/09/12 06:51:02;;;;;;;8.60;7.00;;;;;;;22.29;46.27;97503.04;116309;1182;69008;-67
2021/09/12 06:53:32;;;;;;;11.40;8.20;;;;;;;22.48;46.12;97504.39;116279;1182;68066;-65
2021/09/12 06:56:02;;;;;;;8.10;7.00;;;;;;;22.67;45.86;97505.39;116326;1178;60362;-67
2021/09/12 06:58:31;;;;;;;;;;;;;;;22.85;45.34;97507.02;116331;1182;60326;-67
2021/09/12 07:01:01;;;;;;;12.90;10.70;;;;;;;23.04;44.10;97505.53;116202;1181;72158;-68
2021/09/12 07:03:30;;;;;;;10.80;9.20;;;;;;;21.82;46.39;97501.48;116363;1178;68530;-67
2021/09/12 07:06:00;;;;;;;;;;;;;;;22.25;46.30;97505.02;116330;1181;69372;-66
2021/09/12 07:08:29;;;;;;;7.90;6.60;;;;;;;22.75;44.76;97505.25;116296;1178;60295;-66
2021/09/12 07:10:58;;;;;;;7.30;6.00;;;;;;;23.60;42.21;97500.82;116353;1182;60265;-66
2021/09/12 07:13:27;;;;;;;8.50;6.50;;;;;;;23.67;41.50;97497.92;116322;1181;70448;-67
2021/09/12 07:15:56;;;;;;;6.50;5.80;;;;;;;23.55;41.87;97505.00;116321;1181;69304;-69
2021/09/12 07:18:25;;;;;;;10.20;8.20;;;;;;;23.46;42.47;97504.63;116283;1182;68897;-67
2021/09/12 07:20:54;;;;;;;8.80;7.20;;;;;;;23.23;42.78;97506.80;116283;1181;60700;-66
2021/09/12 07:23:23;;;;;;;7.20;5.90;;;;;;;23.33;42.20;97508.59;116307;1181;60369;-68
2021/09/12 07:25:51;;;;;;;8.20;6.10;;;;;;;23.26;42.21;97505.52;116289;1181;72122;-66
2021/09/12 07:28:21;;;;;;;12.10;7.60;;;;;;;23.08;42.58;97508.67;116181;1177;69194;-67
2021/09/12 07:30:50;;;;;;;9.10;8.10;;;;;;;22.08;44.86;97504.88;116230;1181;69188;-68
2021/09/12 07:33:20;;;;;;;9.20;8.20;;;;;;;21.30;46.76;97502.61;116323;1177;60335;-68
2021/09/12 07:35:49;;;;;;;8.60;6.30;;;;;;;21.33;46.95;97503.66;116367;1182;60358;-68
2021/09/12 07:38:17;;;;;;;8.90;6.80;;;;;;;21.65;46.51;97503.34;116325;1182;72257;-69
2021/09/12 07:40:47;;;;;;;8.40;6.50;;;;;;;21.54;46.38;97503.23;116310;1182;70085;-67
2021/09/12 07:43:17;;;;;;;7.60;6.20;;;;;;;21.86;46.34;97499.16;116347;1179;68686;-66
2021/09/12 07:45:46;;;;;;;8.70;7.50;;;;;;;22.40;45.19;97503.69;116193;1181;60357;-66
2021/09/12 07:48:16;;;;;;;;;;;;;;;22.65;44.57;97501.59;116238;1179;60337;-69
2021/09/12 07:50:46;;;;;;;8.50;7.20;;;;;;;23.15;42.53;97501.19;116311;1181;71354;-67
2021/09/12 07:53:16;;;;;;;9.80;7.90;;;;;;;23.33;42.51;97495.02;116292;1178;69163;-69
2021/09/12 07:55:45;;;;;;;8.40;7.20;;;;;;;23.68;41.81;97496.07;116297;1181;69310;-68
2021/09/12 07:58:14;;;;;;;9.40;7.20;;;;;;;23.76;41.49;97494.66;116180;1181;60342;-67
2021/09/12 08:00:43;;;;;;;6.80;5.80;;;;;;;24.03;41.50;97492.17;116278;1177;60319;-68
2021/09/12 08:03:18;;;;;;;8.30;7.10;;;;;;;24.49;40.95;97490.91;116272;1181;72113;-69
2021/09/12 08:05:48;;;;;;;7.20;6.50;;;;;;;24.53;40.13;97490.27;116247;1178;69230;-68
2021/09/12 08:08:19;;;;;;;7.50;6.50;;;;;;;24.88;40.79;97490.27;116276;1182;67590;-66
2021/09/12 08:10:48;;;;;;;10.00;7.20;;;;;;;24.48;40.07;97488.92;116247;1177;60360;-67
2021/09/12 08:13:17;;;;;;;7.00;6.30;;;;;;;24.25;40.27;97486.11;116280;1182;60370;-66
2021/09/12 08:15:46;;;;;;;5.70;4.50;;;;;;;24.81;40.27;97486.05;116330;1182;71350;-67
2021/09/12 08:18:17;;;;;;;6.70;5.60;;;;;;;25.60;39.06;97483.37;116212;1180;69045;-67
2021/09/12 08:20:46;;;;;;;9.80;7.50;;;;;;;26.09;38.27;97483.17;116354;1181;68649;-70
2021/09/12 08:23:16;;;;;;;9.20;6.90;;;;;;;25.00;37.74;97483.17;116453;1181;60324;-67
2021/09/12 08:25:46;;;;;;;;;;;;;;;25.44;38.20;97479.26;116317;1182;60395;-69
2021/09/12 08:28:15;;;;;;;;;;;;;;;24.83;39.02;97475.27;116290;1182;72060;-67
2021/09/12 08:30:44;;;;;;;;;;;;;;;25.97;37.46;97474.48;116252;1178;69225;-71
2021/09/12 08:33:14;;;;;;;;;;;;;;;26.72;35.90;97473.05;116307;1181;68287;-69
2021/09/12 08:35:44;;;;;;;;;;;;;;;27.13;35.37;97469.09;116286;1180;60344;-70
2021/09/12 08:38:13;;;;;;;;;;;;;;;27.42;33.91;97469.13;116287;1180;60351;-70
2021/09/12 08:40:41;;;;;;;;;;;;;;;26.23;35.36;97468.02;116302;1178;71503;-69
2021/09/12 08:43:12;;;;;;;;;;;;;;;26.57;35.29;97468.05;116418;1181;69199;-70
2021/09/12 08:45:41;;;;;;;;;;;;;;;26.72;34.99;97465.21;116312;1182;68445;-68
2021/09/12 08:48:10;;;;;;;;;;;;;;;26.31;35.15;97463.14;116299;1181;60328;-67
2021/09/12 08:50:38;;;;;;;;;;;;;;;25.32;36.98;97457.98;116334;1182;60350;-68
2021/09/12 08:53:07;;;;;;;;;;;;;;;26.11;35.99;97458.18;116313;1178;71976;-69
2021/09/12 08:55:36;;;;;;;;;;;;;;;25.40;37.30;97457.92;116319;1178;68448;-66
2021/09/12 08:58:05;;;;;;;;;;;;;;;25.53;36.73;97452.02;116276;1178;69226;-71
2021/09/12 09:00:34;;;;;;;;;;;;;;;25.55;36.94;97453.67;116292;1181;60364;-69
2021/09/12 09:03:04;;;;;;;;;;;;;;;26.55;35.81;97453.43;116355;1181;60305;-67
2021/09/12 09:05:34;;;;;;;;;;;;;;;27.19;34.63;97448.67;116354;1178;72125;-70
2021/09/12 09:08:16;;;;;;;;;;;;;;;28.05;32.84;97449.25;116352;1178;68509;-69
2021/09/12 09:10:52;;;;;;;;;;;;;;;28.24;32.60;97447.02;116330;1178;69254;-68
2021/09/12 09:13:32;;;;;;;;;;;;;;;28.39;32.36;97442.98;116340;1182;60335;-71
2021/09/12 09:16:03;;;;;;;;;;;;;;;28.96;31.31;97440.60;116389;1178;60296;-68
2021/09/12 09:18:33;;;;;;;;;;;;;;;29.55;30.35;97440.63;116485;1181;71344;-68
2021/09/12 09:21:23;;;;;;;;;;;;;;;29.85;30.27;97439.73;116292;1182;69477;-69
2021/09/12 09:24:12;;;;;;;;;;;;;;;30.17;29.66;97438.82;116296;1182;69044;-68
2021/09/12 09:26:43;;;;;;;;;;;;;;;29.54;30.02;97444.86;116283;1178;60355;-69
2021/09/12 09:29:12;;;;;;;;;;;;;;;29.09;30.52;97441.15;116290;1182;60313;-68
2021/09/12 09:31:41;;;;;;;;;;;;;;;29.66;29.60;97437.30;116311;1181;71052;-70
2021/09/12 09:34:13;;;;;;;;;;;;;;;30.09;28.76;97435.58;116352;1181;69110;-68
2021/09/12 09:36:42;;;;;;;;;;;;;;;30.42;29.24;97434.84;116338;1181;67272;-67
2021/09/12 09:39:11;;;;;;;;;;;;;;;30.85;28.22;97433.36;116332;1181;60343;-69
2021/09/12 09:41:40;;;;;;;;;;;;;;;30.80;27.33;97430.45;116317;1181;60307;-69
2021/09/12 09:44:10;;;;;;;;;;;;;;;30.59;28.43;97429.91;116328;1181;72871;-69
2021/09/12 09:46:41;;;;;;;;;;;;;;;31.08;28.16;97425.31;116379;1178;69241;-69
2021/09/12 09:49:22;;;;;;;;;;;;;;;30.76;27.74;97424.65;116297;1181;68559;-68
2021/09/12 09:51:52;;;;;;;;;;;;;;;31.29;26.53;97422.84;116333;1178;60276;-68
2021/09/12 09:54:22;;;;;;;;;;;;;;;31.48;26.68;97417.71;116298;1183;60288;-68
2021/09/12 09:56:52;;;;;;;;;;;;;;;32.12;25.65;97413.64;116309;1182;71943;-68
2021/09/12 09:59:22;;;;;;;;;;;;;;;31.35;26.86;97414.52;116290;1178;68290;-68
2021/09/12 10:01:52;;;;;;;;;;;;;;;31.45;26.34;97412.69;116271;1182;68482;-67
2021/09/12 10:04:23;;;;;;;;;;;;;;;31.56;26.19;97409.14;116291;1181;60311;-67
2021/09/12 10:06:52;;;;;;;;;;;;;;;30.93;26.75;97407.10;116275;1178;60296;-68
2021/09/12 10:09:21;;;;;;;;;;;;;;;31.02;26.72;97404.59;116312;1182;72116;-70
2021/09/12 10:12:01;;;;;;;;;;;;;;;31.62;25.61;97399.30;116124;1183;68296;-69
2021/09/12 10:14:51;;;;;;;;;;;;;;;32.17;25.63;97394.42;116334;1182;67348;-71
2021/09/12 10:17:24;;;;;;;;;;;;;;;32.67;23.99;97395.70;116338;1177;60290;-67
2021/09/12 10:20:07;;;;;;;;;;;;;;;32.72;24.55;97389.85;116328;1179;60267;-69
2021/09/12 10:22:48;;;;;;;;;;;;;;;33.00;24.70;97387.55;116371;1181;72732;-68
2021/09/12 10:25:18;;;;;;;;;;;;;;;33.32;23.70;97385.11;116349;1182;69190;-68
2021/09/12 10:27:48;;;;;;;;;;;;;;;33.46;22.81;97384.65;116339;1182;69015;-67
2021/09/12 10:30:17;;;;;;;;;;;;;;;33.61;23.32;97382.49;116332;1182;60355;-71
2021/09/12 10:32:46;;;;;;;;;;;;;;;33.78;23.21;97385.66;116297;1181;60354;-72
2021/09/12 10:35:26;;;;;;;;;;;;;;;34.14;22.77;97385.35;116335;1177;71463;-70
2021/09/12 10:37:59;;;;;;;;;;;;;;;34.14;22.88;97384.56;116320;1179;69035;-70
2021/09/12 10:40:49;;;;;;;;;;;;;;;34.17;22.87;97386.54;116306;1182;68431;-68
2021/09/12 10:43:24;;;;;;;;;;;;;;;35.09;21.58;97389.23;116341;1181;60343;-70
2021/09/12 10:45:59;;;;;;;;;;;;;;;35.48;20.58;97384.95;116358;1178;60417;-70
2021/09/12 10:48:31;;;;;;;;;;;;;;;35.76;20.37;97383.73;116332;1182;72744;-72
2021/09/12 10:51:01;;;;;;;;;;;;;;;36.04;20.50;97379.58;116332;1182;68607;-71
2021/09/12 10:53:48;;;;;;;;;;;;;;;36.32;20.53;97374.64;116264;1179;68300;-69
2021/09/12 10:56:17;;;;;;;;;;;;;;;36.46;20.27;97375.90;116326;1182;60339;-69
2021/09/12 10:58:48;;;;;;;;;;;;;;;36.58;19.85;97375.02;116245;1182;60313;-67
2021/09/12 11:01:27;;;;;;;;;;;;;;;36.66;20.08;97372.44;116365;1182;72130;-71
2021/09/12 11:04:00;;;;;;;;;;;;;;;37.21;20.44;97375.65;116361;1181;68542;-69
2021/09/12 11:06:30;;;;;;;;;;;;;;;37.68;19.58;97375.55;116304;1183;68507;-71
2021/09/12 11:09:00;;;;;;;;;;;;;;;38.03;18.32;97370.59;116304;1178;60708;-72
2021/09/12 11:11:28;;;;;;;;;;;;;;;37.89;17.76;97370.13;116370;1182;60344;-67
2021/09/12 11:13:58;;;;;;;;;;;;;;;37.56;18.02;97368.47;116286;1183;71974;-68
2021/09/12 11:16:27;;;;;;;;;;;;;;;36.66;19.45;97363.98;116312;1182;69030;-69
2021/09/12 11:18:59;;;;;;;;;;;;;;;37.16;19.13;97367.73;116328;1181;69032;-69
2021/09/12 11:21:33;;;;;;;;;;;;;;;37.78;18.57;97365.38;116334;1178;60361;-72
2021/09/12 11:24:09;;;;;;;;;;;;;;;38.40;18.26;97363.19;116317;1181;60342;-70
2021/09/12 11:26:56;;;;;;;;;;;;;;;38.94;17.84;97365.59;116304;1182;72459;-71
2021/09/12 11:29:30;;;;;;;;;;;;;;;37.53;16.99;97361.04;116240;1183;68453;-68
2021/09/12 11:31:58;;;;;;;;;;;;;;;35.87;19.43;97358.54;116244;1179;69503;-70
2021/09/12 11:34:28;;;;;;;;;;;;;;;35.61;20.22;97357.72;116552;1181;60331;-67
2021/09/12 11:37:08;;;;;;;;;;;;;;;35.18;19.71;97352.15;116340;1182;60347;-67
2021/09/12 11:39:38;;;;;;;;;;;;;;;36.25;19.16;97349.63;116296;1181;72012;-68
2021/09/12 11:42:08;;;;;;;;;;;;;;;37.19;18.32;97348.97;116363;1181;69287;-69
2021/09/12 11:44:38;;;;;;;;;;;;;;;37.94;17.67;97345.23;116320;1182;69228;-73
2021/09/12 11:47:08;;;;;;;;;;;;;;;38.71;17.56;97345.58;116352;1182;60331;-68
2021/09/12 11:49:38;;;;;;;;;;;;;;;39.38;17.17;97343.23;116272;1182;60349;-72
2021/09/12 11:52:08;;;;;;;;;;;;;;;39.43;17.06;97337.55;116344;1182;72160;-72
2021/09/12 11:54:37;;;;;;;;;;;;;;;39.48;16.82;97334.41;116330;1177;69297;-70
2021/09/12 11:57:07;;;;;;;;;;;;;;;39.55;16.60;97327.23;116333;1182;69235;-69